sensor_id;sensor_type;location;lat;lon;timestamp;temperature;humidity
71175;DHT22;58876;51.994;4.472;2023-04-24T00:00:56;10.40;90.55
71175;DHT22;58876;51.994;4.472;2023-04-24T00:03:23;10.42;90.54
71175;DHT22;58876;51.994;4.472;2023-04-24T00:05:49;10.67;90.19
71175;DHT22;58876;51.994;4.472;2023-04-24T00:08:15;10.49;90.00
71175;DHT22;58876;51.994;4.472;2023-04-24T00:10:41;10.46;90.27
71175;DHT22;58876;51.994;4.472;2023-04-24T00:13:07;10.39;90.45
71175;DHT22;58876;51.994;4.472;2023-04-24T00:15:32;10.47;90.31
71175;DHT22;58876;51.994;4.472;2023-04-24T00:17:58;10.51;90.52
71175;DHT22;58876;51.994;4.472;2023-04-24T00:20:23;10.34;90.49
71175;DHT22;58876;51.994;4.472;2023-04-24T00:22:49;10.43;90.40
71175;DHT22;58876;51.994;4.472;2023-04-24T00:25:14;10.34;90.57
71175;DHT22;58876;51.994;4.472;2023-04-24T00:27:40;10.39;90.63
71175;DHT22;58876;51.994;4.472;2023-04-24T00:30:06;10.33;90.57
71175;DHT22;58876;51.994;4.472;2023-04-24T00:32:31;10.26;90.61
71175;DHT22;58876;51.994;4.472;2023-04-24T00:34:57;10.20;90.64
71175;DHT22;58876;51.994;4.472;2023-04-24T00:37:22;10.23;90.76
71175;DHT22;58876;51.994;4.472;2023-04-24T00:39:48;10.13;90.82
71175;DHT22;58876;51.994;4.472;2023-04-24T00:42:13;10.29;90.57
71175;DHT22;58876;51.994;4.472;2023-04-24T00:44:39;10.22;90.87
71175;DHT22;58876;51.994;4.472;2023-04-24T00:47:04;10.28;90.34
71175;DHT22;58876;51.994;4.472;2023-04-24T00:49:30;10.26;90.37
71175;DHT22;58876;51.994;4.472;2023-04-24T00:51:55;10.26;90.52
71175;DHT22;58876;51.994;4.472;2023-04-24T00:54:22;10.16;90.59
71175;DHT22;58876;51.994;4.472;2023-04-24T00:56:48;10.23;90.58
71175;DHT22;58876;51.994;4.472;2023-04-24T00:59:16;10.19;90.39
71175;DHT22;58876;51.994;4.472;2023-04-24T01:01:43;10.12;90.21
71175;DHT22;58876;51.994;4.472;2023-04-24T01:04:09;10.01;90.23
71175;DHT22;58876;51.994;4.472;2023-04-24T01:06:39;10.05;90.33
71175;DHT22;58876;51.994;4.472;2023-04-24T01:09:05;9.98;90.41
71175;DHT22;58876;51.994;4.472;2023-04-24T01:11:31;10.06;90.27
71175;DHT22;58876;51.994;4.472;2023-04-24T01:13:57;10.17;90.11
71175;DHT22;58876;51.994;4.472;2023-04-24T01:16:22;10.16;90.22
71175;DHT22;58876;51.994;4.472;2023-04-24T01:18:48;10.34;89.99
71175;DHT22;58876;51.994;4.472;2023-04-24T01:21:15;10.30;89.88
71175;DHT22;58876;51.994;4.472;2023-04-24T01:23:43;10.24;89.76
71175;DHT22;58876;51.994;4.472;2023-04-24T01:26:09;10.28;89.79
71175;DHT22;58876;51.994;4.472;2023-04-24T01:28:34;10.22;89.45
71175;DHT22;58876;51.994;4.472;2023-04-24T01:31:00;10.09;89.31
71175;DHT22;58876;51.994;4.472;2023-04-24T01:33:25;10.08;89.71
71175;DHT22;58876;51.994;4.472;2023-04-24T01:35:52;10.02;89.60
71175;DHT22;58876;51.994;4.472;2023-04-24T01:38:17;10.12;89.60
71175;DHT22;58876;51.994;4.472;2023-04-24T01:40:43;9.99;89.70
71175;DHT22;58876;51.994;4.472;2023-04-24T01:43:08;9.98;90.06
71175;DHT22;58876;51.994;4.472;2023-04-24T01:45:34;10.08;90.10
71175;DHT22;58876;51.994;4.472;2023-04-24T01:48:00;10.01;90.09
71175;DHT22;58876;51.994;4.472;2023-04-24T01:50:26;10.09;90.18
71175;DHT22;58876;51.994;4.472;2023-04-24T01:52:51;10.02;90.05
71175;DHT22;58876;51.994;4.472;2023-04-24T01:55:17;10.14;89.93
71175;DHT22;58876;51.994;4.472;2023-04-24T01:57:43;10.22;89.81
71175;DHT22;58876;51.994;4.472;2023-04-24T02:00:09;10.22;89.47
71175;DHT22;58876;51.994;4.472;2023-04-24T02:02:37;10.14;89.68
71175;DHT22;58876;51.994;4.472;2023-04-24T02:05:02;10.19;89.76
71175;DHT22;58876;51.994;4.472;2023-04-24T02:07:28;10.17;89.57
71175;DHT22;58876;51.994;4.472;2023-04-24T02:09:53;10.23;89.63
71175;DHT22;58876;51.994;4.472;2023-04-24T02:12:20;10.30;89.39
71175;DHT22;58876;51.994;4.472;2023-04-24T02:14:46;10.23;89.45
71175;DHT22;58876;51.994;4.472;2023-04-24T02:17:11;10.22;89.60
71175;DHT22;58876;51.994;4.472;2023-04-24T02:19:38;10.06;89.70
71175;DHT22;58876;51.994;4.472;2023-04-24T02:22:04;10.10;89.95
71175;DHT22;58876;51.994;4.472;2023-04-24T02:24:29;10.10;89.84
71175;DHT22;58876;51.994;4.472;2023-04-24T02:26:58;10.13;89.91
71175;DHT22;58876;51.994;4.472;2023-04-24T02:29:23;10.10;90.11
71175;DHT22;58876;51.994;4.472;2023-04-24T02:31:49;10.23;90.07
71175;DHT22;58876;51.994;4.472;2023-04-24T02:34:15;10.36;89.65
71175;DHT22;58876;51.994;4.472;2023-04-24T02:36:41;10.37;89.22
71175;DHT22;58876;51.994;4.472;2023-04-24T02:39:07;10.32;89.15
71175;DHT22;58876;51.994;4.472;2023-04-24T02:41:32;10.26;89.11
71175;DHT22;58876;51.994;4.472;2023-04-24T02:43:58;10.17;88.80
71175;DHT22;58876;51.994;4.472;2023-04-24T02:46:25;10.24;88.86
71175;DHT22;58876;51.994;4.472;2023-04-24T02:48:50;10.24;88.43
71175;DHT22;58876;51.994;4.472;2023-04-24T02:51:16;10.06;88.37
71175;DHT22;58876;51.994;4.472;2023-04-24T02:53:41;10.10;88.31
71175;DHT22;58876;51.994;4.472;2023-04-24T02:56:07;9.99;88.35
71175;DHT22;58876;51.994;4.472;2023-04-24T02:58:32;10.05;88.12
71175;DHT22;58876;51.994;4.472;2023-04-24T03:00:58;10.08;88.00
71175;DHT22;58876;51.994;4.472;2023-04-24T03:03:23;10.05;88.31
71175;DHT22;58876;51.994;4.472;2023-04-24T03:05:49;10.08;88.31
71175;DHT22;58876;51.994;4.472;2023-04-24T03:08:16;9.99;88.58
71175;DHT22;58876;51.994;4.472;2023-04-24T03:10:43;10.13;88.62
71175;DHT22;58876;51.994;4.472;2023-04-24T03:13:08;10.24;88.34
71175;DHT22;58876;51.994;4.472;2023-04-24T03:15:34;10.32;87.98
71175;DHT22;58876;51.994;4.472;2023-04-24T03:17:59;10.20;88.11
71175;DHT22;58876;51.994;4.472;2023-04-24T03:20:25;10.33;88.23
71175;DHT22;58876;51.994;4.472;2023-04-24T03:22:51;10.44;88.08
71175;DHT22;58876;51.994;4.472;2023-04-24T03:25:17;10.50;88.02
71175;DHT22;58876;51.994;4.472;2023-04-24T03:27:42;10.30;87.83
71175;DHT22;58876;51.994;4.472;2023-04-24T03:30:08;10.12;88.62
71175;DHT22;58876;51.994;4.472;2023-04-24T03:32:33;9.96;88.97
71175;DHT22;58876;51.994;4.472;2023-04-24T03:34:59;9.96;89.02
71175;DHT22;58876;51.994;4.472;2023-04-24T03:37:25;9.93;88.54
71175;DHT22;58876;51.994;4.472;2023-04-24T03:39:51;10.19;88.06
71175;DHT22;58876;51.994;4.472;2023-04-24T03:42:17;10.33;87.69
71175;DHT22;58876;51.994;4.472;2023-04-24T03:44:42;10.42;87.32
71175;DHT22;58876;51.994;4.472;2023-04-24T03:47:08;10.57;87.16
71175;DHT22;58876;51.994;4.472;2023-04-24T03:49:33;10.57;86.60
71175;DHT22;58876;51.994;4.472;2023-04-24T03:51:58;10.68;86.83
71175;DHT22;58876;51.994;4.472;2023-04-24T03:54:24;10.77;86.55
71175;DHT22;58876;51.994;4.472;2023-04-24T03:56:49;10.80;86.05
71175;DHT22;58876;51.994;4.472;2023-04-24T03:59:15;10.85;86.12
71175;DHT22;58876;51.994;4.472;2023-04-24T04:01:40;10.92;85.79
71175;DHT22;58876;51.994;4.472;2023-04-24T04:04:06;10.91;86.02
71175;DHT22;58876;51.994;4.472;2023-04-24T04:06:33;10.85;85.89
71175;DHT22;58876;51.994;4.472;2023-04-24T04:08:59;10.91;86.34
71175;DHT22;58876;51.994;4.472;2023-04-24T04:11:25;10.91;86.09
71175;DHT22;58876;51.994;4.472;2023-04-24T04:13:51;10.91;86.15
71175;DHT22;58876;51.994;4.472;2023-04-24T04:16:17;10.72;86.37
71175;DHT22;58876;51.994;4.472;2023-04-24T04:18:43;10.54;87.23
71175;DHT22;58876;51.994;4.472;2023-04-24T04:21:09;10.40;87.86
71175;DHT22;58876;51.994;4.472;2023-04-24T04:23:34;10.36;88.60
71175;DHT22;58876;51.994;4.472;2023-04-24T04:26:00;10.32;88.80
71175;DHT22;58876;51.994;4.472;2023-04-24T04:28:26;10.23;89.50
71175;DHT22;58876;51.994;4.472;2023-04-24T04:30:52;10.19;89.76
71175;DHT22;58876;51.994;4.472;2023-04-24T04:33:24;10.09;89.59
71175;DHT22;58876;51.994;4.472;2023-04-24T04:35:51;10.13;89.65
71175;DHT22;58876;51.994;4.472;2023-04-24T04:38:22;10.08;89.63
71175;DHT22;58876;51.994;4.472;2023-04-24T04:40:48;10.14;89.59
71175;DHT22;58876;51.994;4.472;2023-04-24T04:43:14;10.06;89.46
71175;DHT22;58876;51.994;4.472;2023-04-24T04:45:42;9.91;89.71
71175;DHT22;58876;51.994;4.472;2023-04-24T04:48:09;9.67;89.73
71175;DHT22;58876;51.994;4.472;2023-04-24T04:50:37;9.74;90.15
71175;DHT22;58876;51.994;4.472;2023-04-24T04:53:03;9.77;90.09
71175;DHT22;58876;51.994;4.472;2023-04-24T04:55:28;9.70;89.98
71175;DHT22;58876;51.994;4.472;2023-04-24T04:57:54;9.65;89.98
71175;DHT22;58876;51.994;4.472;2023-04-24T05:00:21;9.54;89.57
71175;DHT22;58876;51.994;4.472;2023-04-24T05:02:47;9.55;89.87
71175;DHT22;58876;51.994;4.472;2023-04-24T05:05:12;9.47;89.70
71175;DHT22;58876;51.994;4.472;2023-04-24T05:07:37;9.47;89.79
71175;DHT22;58876;51.994;4.472;2023-04-24T05:10:03;9.45;89.56
71175;DHT22;58876;51.994;4.472;2023-04-24T05:12:29;9.51;89.49
71175;DHT22;58876;51.994;4.472;2023-04-24T05:14:54;9.48;89.52
71175;DHT22;58876;51.994;4.472;2023-04-24T05:17:20;9.40;89.72
71175;DHT22;58876;51.994;4.472;2023-04-24T05:19:46;9.48;89.87
71175;DHT22;58876;51.994;4.472;2023-04-24T05:22:11;9.51;89.63
71175;DHT22;58876;51.994;4.472;2023-04-24T05:24:37;9.50;89.43
71175;DHT22;58876;51.994;4.472;2023-04-24T05:27:03;9.35;89.27
71175;DHT22;58876;51.994;4.472;2023-04-24T05:29:30;9.38;89.15
71175;DHT22;58876;51.994;4.472;2023-04-24T05:31:59;9.24;88.93
71175;DHT22;58876;51.994;4.472;2023-04-24T05:34:25;9.23;88.70
71175;DHT22;58876;51.994;4.472;2023-04-24T05:36:50;9.24;88.54
71175;DHT22;58876;51.994;4.472;2023-04-24T05:39:16;9.26;88.58
71175;DHT22;58876;51.994;4.472;2023-04-24T05:41:42;9.26;88.65
71175;DHT22;58876;51.994;4.472;2023-04-24T05:44:07;9.26;88.41
71175;DHT22;58876;51.994;4.472;2023-04-24T05:46:33;9.34;88.75
71175;DHT22;58876;51.994;4.472;2023-04-24T05:48:58;9.40;88.50
71175;DHT22;58876;51.994;4.472;2023-04-24T05:51:24;9.43;88.51
71175;DHT22;58876;51.994;4.472;2023-04-24T05:53:49;9.45;88.38
71175;DHT22;58876;51.994;4.472;2023-04-24T05:56:15;9.45;88.22
71175;DHT22;58876;51.994;4.472;2023-04-24T05:58:41;9.50;88.41
71175;DHT22;58876;51.994;4.472;2023-04-24T06:01:07;9.43;88.51
71175;DHT22;58876;51.994;4.472;2023-04-24T06:03:32;9.45;88.26
71175;DHT22;58876;51.994;4.472;2023-04-24T06:05:58;9.33;87.83
71175;DHT22;58876;51.994;4.472;2023-04-24T06:08:24;9.34;88.11
71175;DHT22;58876;51.994;4.472;2023-04-24T06:10:49;9.43;88.28
71175;DHT22;58876;51.994;4.472;2023-04-24T06:13:15;9.33;87.75
71175;DHT22;58876;51.994;4.472;2023-04-24T06:15:41;9.38;88.06
71175;DHT22;58876;51.994;4.472;2023-04-24T06:18:07;9.47;87.90
71175;DHT22;58876;51.994;4.472;2023-04-24T06:20:32;9.37;87.58
71175;DHT22;58876;51.994;4.472;2023-04-24T06:22:58;9.40;87.60
71175;DHT22;58876;51.994;4.472;2023-04-24T06:25:25;9.31;87.54
71175;DHT22;58876;51.994;4.472;2023-04-24T06:27:52;9.35;87.05
71175;DHT22;58876;51.994;4.472;2023-04-24T06:30:17;9.34;86.85
71175;DHT22;58876;51.994;4.472;2023-04-24T06:32:43;9.41;86.76
71175;DHT22;58876;51.994;4.472;2023-04-24T06:35:08;9.44;85.86
71175;DHT22;58876;51.994;4.472;2023-04-24T06:37:35;9.43;86.47
71175;DHT22;58876;51.994;4.472;2023-04-24T06:40:01;9.38;86.18
71175;DHT22;58876;51.994;4.472;2023-04-24T06:42:27;9.40;85.95
71175;DHT22;58876;51.994;4.472;2023-04-24T06:44:53;9.47;86.56
71175;DHT22;58876;51.994;4.472;2023-04-24T06:47:18;9.54;86.56
71175;DHT22;58876;51.994;4.472;2023-04-24T06:49:44;9.64;86.18
71175;DHT22;58876;51.994;4.472;2023-04-24T06:52:09;9.51;86.09
71175;DHT22;58876;51.994;4.472;2023-04-24T06:54:35;9.57;86.16
71175;DHT22;58876;51.994;4.472;2023-04-24T06:57:00;9.71;85.48
71175;DHT22;58876;51.994;4.472;2023-04-24T06:59:28;9.65;85.61
71175;DHT22;58876;51.994;4.472;2023-04-24T07:01:55;9.55;85.08
71175;DHT22;58876;51.994;4.472;2023-04-24T07:04:21;9.47;85.06
71175;DHT22;58876;51.994;4.472;2023-04-24T07:06:47;9.48;84.96
71175;DHT22;58876;51.994;4.472;2023-04-24T07:09:12;9.31;84.72
71175;DHT22;58876;51.994;4.472;2023-04-24T07:11:47;9.38;85.16
71175;DHT22;58876;51.994;4.472;2023-04-24T07:14:13;9.51;85.25
71175;DHT22;58876;51.994;4.472;2023-04-24T07:16:39;9.50;84.96
71175;DHT22;58876;51.994;4.472;2023-04-24T07:19:05;9.52;84.92
71175;DHT22;58876;51.994;4.472;2023-04-24T07:21:30;9.57;84.33
71175;DHT22;58876;51.994;4.472;2023-04-24T07:24:00;9.58;83.37
71175;DHT22;58876;51.994;4.472;2023-04-24T07:26:28;9.55;82.63
71175;DHT22;58876;51.994;4.472;2023-04-24T07:28:53;9.45;81.97
71175;DHT22;58876;51.994;4.472;2023-04-24T07:31:20;9.48;81.79
71175;DHT22;58876;51.994;4.472;2023-04-24T07:33:46;9.61;81.79
71175;DHT22;58876;51.994;4.472;2023-04-24T07:36:11;9.77;82.12
71175;DHT22;58876;51.994;4.472;2023-04-24T07:38:41;9.65;81.59
71175;DHT22;58876;51.994;4.472;2023-04-24T07:41:07;9.70;81.86
71175;DHT22;58876;51.994;4.472;2023-04-24T07:43:33;9.67;81.68
71175;DHT22;58876;51.994;4.472;2023-04-24T07:45:58;9.74;80.89
71175;DHT22;58876;51.994;4.472;2023-04-24T07:48:24;9.68;80.38
71175;DHT22;58876;51.994;4.472;2023-04-24T07:50:51;9.67;80.31
71175;DHT22;58876;51.994;4.472;2023-04-24T07:53:17;9.68;80.65
71175;DHT22;58876;51.994;4.472;2023-04-24T07:55:42;9.64;80.19
71175;DHT22;58876;51.994;4.472;2023-04-24T07:58:08;9.70;78.69
71175;DHT22;58876;51.994;4.472;2023-04-24T08:00:34;9.82;78.61
71175;DHT22;58876;51.994;4.472;2023-04-24T08:02:59;9.88;79.18
71175;DHT22;58876;51.994;4.472;2023-04-24T08:05:25;9.72;78.08
71175;DHT22;58876;51.994;4.472;2023-04-24T08:07:52;9.61;78.25
71175;DHT22;58876;51.994;4.472;2023-04-24T08:10:18;9.67;78.09
71175;DHT22;58876;51.994;4.472;2023-04-24T08:12:43;9.67;77.76
71175;DHT22;58876;51.994;4.472;2023-04-24T08:15:09;9.45;76.24
71175;DHT22;58876;51.994;4.472;2023-04-24T08:17:35;9.51;76.28
71175;DHT22;58876;51.994;4.472;2023-04-24T08:20:02;9.71;76.14
71175;DHT22;58876;51.994;4.472;2023-04-24T08:22:29;9.65;73.87
71175;DHT22;58876;51.994;4.472;2023-04-24T08:24:54;9.86;73.05
71175;DHT22;58876;51.994;4.472;2023-04-24T08:27:21;9.91;73.03
71175;DHT22;58876;51.994;4.472;2023-04-24T08:29:46;10.02;72.28
71175;DHT22;58876;51.994;4.472;2023-04-24T08:32:12;10.05;71.34
71175;DHT22;58876;51.994;4.472;2023-04-24T08:34:37;10.02;71.19
71175;DHT22;58876;51.994;4.472;2023-04-24T08:37:03;9.95;72.34
71175;DHT22;58876;51.994;4.472;2023-04-24T08:39:28;9.92;73.43
71175;DHT22;58876;51.994;4.472;2023-04-24T08:41:57;9.93;73.20
71175;DHT22;58876;51.994;4.472;2023-04-24T08:44:32;9.81;73.56
71175;DHT22;58876;51.994;4.472;2023-04-24T08:46:57;9.70;72.85
71175;DHT22;58876;51.994;4.472;2023-04-24T08:49:25;9.75;72.65
71175;DHT22;58876;51.994;4.472;2023-04-24T08:51:52;9.75;71.27
71175;DHT22;58876;51.994;4.472;2023-04-24T08:54:18;9.81;70.73
71175;DHT22;58876;51.994;4.472;2023-04-24T08:56:47;10.06;71.64
71175;DHT22;58876;51.994;4.472;2023-04-24T08:59:14;10.06;71.95
71175;DHT22;58876;51.994;4.472;2023-04-24T09:01:40;9.91;72.82
71175;DHT22;58876;51.994;4.472;2023-04-24T09:04:08;9.86;73.94
71175;DHT22;58876;51.994;4.472;2023-04-24T09:06:35;9.64;76.14
71175;DHT22;58876;51.994;4.472;2023-04-24T09:09:02;9.44;77.43
71175;DHT22;58876;51.994;4.472;2023-04-24T09:11:30;9.27;77.43
71175;DHT22;58876;51.994;4.472;2023-04-24T09:13:57;9.34;77.11
71175;DHT22;58876;51.994;4.472;2023-04-24T09:16:25;9.48;76.41
71175;DHT22;58876;51.994;4.472;2023-04-24T09:18:52;9.81;76.15
71175;DHT22;58876;51.994;4.472;2023-04-24T09:21:21;10.09;74.90
71175;DHT22;58876;51.994;4.472;2023-04-24T09:23:47;10.12;74.31
71175;DHT22;58876;51.994;4.472;2023-04-24T09:26:22;10.22;73.73
71175;DHT22;58876;51.994;4.472;2023-04-24T09:28:48;10.28;73.36
71175;DHT22;58876;51.994;4.472;2023-04-24T09:31:15;10.51;73.56
71175;DHT22;58876;51.994;4.472;2023-04-24T09:34:01;11.02;71.89
71175;DHT22;58876;51.994;4.472;2023-04-24T09:36:39;11.01;70.87
71175;DHT22;58876;51.994;4.472;2023-04-24T09:39:15;10.84;70.45
71175;DHT22;58876;51.994;4.472;2023-04-24T09:41:55;10.77;70.83
71175;DHT22;58876;51.994;4.472;2023-04-24T09:44:25;11.14;71.68
71175;DHT22;58876;51.994;4.472;2023-04-24T09:46:58;10.74;71.91
71175;DHT22;58876;51.994;4.472;2023-04-24T09:49:25;10.82;71.52
71175;DHT22;58876;51.994;4.472;2023-04-24T09:51:51;10.64;72.32
71175;DHT22;58876;51.994;4.472;2023-04-24T09:54:19;10.70;71.92
71175;DHT22;58876;51.994;4.472;2023-04-24T09:56:49;10.71;72.29
71175;DHT22;58876;51.994;4.472;2023-04-24T09:59:16;10.59;72.05
71175;DHT22;58876;51.994;4.472;2023-04-24T10:01:42;10.50;72.32
71175;DHT22;58876;51.994;4.472;2023-04-24T10:04:23;10.46;72.79
71175;DHT22;58876;51.994;4.472;2023-04-24T10:06:51;10.56;72.06
71175;DHT22;58876;51.994;4.472;2023-04-24T10:09:19;10.49;70.42
71175;DHT22;58876;51.994;4.472;2023-04-24T10:11:47;10.72;71.29
71175;DHT22;58876;51.994;4.472;2023-04-24T10:14:14;10.82;70.31
71175;DHT22;58876;51.994;4.472;2023-04-24T10:16:40;10.71;70.29
71175;DHT22;58876;51.994;4.472;2023-04-24T10:19:06;10.49;73.35
71175;DHT22;58876;51.994;4.472;2023-04-24T10:21:32;10.30;74.23
71175;DHT22;58876;51.994;4.472;2023-04-24T10:23:59;10.08;74.54
71175;DHT22;58876;51.994;4.472;2023-04-24T10:26:28;9.85;75.86
71175;DHT22;58876;51.994;4.472;2023-04-24T10:28:57;9.75;76.87
71175;DHT22;58876;51.994;4.472;2023-04-24T10:31:24;9.79;76.11
71175;DHT22;58876;51.994;4.472;2023-04-24T10:33:51;9.86;76.44
71175;DHT22;58876;51.994;4.472;2023-04-24T10:36:22;9.91;77.56
71175;DHT22;58876;51.994;4.472;2023-04-24T10:38:49;10.19;77.88
71175;DHT22;58876;51.994;4.472;2023-04-24T10:41:17;10.39;77.87
71175;DHT22;58876;51.994;4.472;2023-04-24T10:44:03;10.40;76.93
71175;DHT22;58876;51.994;4.472;2023-04-24T10:46:30;10.67;75.60
71175;DHT22;58876;51.994;4.472;2023-04-24T10:48:56;10.94;73.17
71175;DHT22;58876;51.994;4.472;2023-04-24T10:51:23;11.25;71.96
71175;DHT22;58876;51.994;4.472;2023-04-24T10:53:51;11.05;70.75
71175;DHT22;58876;51.994;4.472;2023-04-24T10:56:18;10.77;71.05
71175;DHT22;58876;51.994;4.472;2023-04-24T10:58:49;10.94;71.83
71175;DHT22;58876;51.994;4.472;2023-04-24T11:01:29;10.80;72.83
71175;DHT22;58876;51.994;4.472;2023-04-24T11:04:02;10.67;72.04
71175;DHT22;58876;51.994;4.472;2023-04-24T11:06:34;10.85;71.10
71175;DHT22;58876;51.994;4.472;2023-04-24T11:09:08;10.88;68.10
71175;DHT22;58876;51.994;4.472;2023-04-24T11:11:36;11.05;69.31
71175;DHT22;58876;51.994;4.472;2023-04-24T11:14:06;11.44;66.92
71175;DHT22;58876;51.994;4.472;2023-04-24T11:16:40;11.87;65.91
71175;DHT22;58876;51.994;4.472;2023-04-24T11:19:09;11.93;64.90
71175;DHT22;58876;51.994;4.472;2023-04-24T11:21:40;11.56;64.76
71175;DHT22;58876;51.994;4.472;2023-04-24T11:30:02;12.02;63.06
71175;DHT22;58876;51.994;4.472;2023-04-24T11:35:17;12.37;62.72
71175;DHT22;58876;51.994;4.472;2023-04-24T11:37:51;11.87;63.03
71175;DHT22;58876;51.994;4.472;2023-04-24T11:40:19;11.60;63.19
71175;DHT22;58876;51.994;4.472;2023-04-24T11:42:50;11.55;62.97
71175;DHT22;58876;51.994;4.472;2023-04-24T11:45:17;11.59;64.23
71175;DHT22;58876;51.994;4.472;2023-04-24T11:47:44;12.10;64.80
71175;DHT22;58876;51.994;4.472;2023-04-24T11:50:16;12.29;64.66
71175;DHT22;58876;51.994;4.472;2023-04-24T11:52:46;12.02;64.55
71175;DHT22;58876;51.994;4.472;2023-04-24T11:57:43;12.18;66.00
71175;DHT22;58876;51.994;4.472;2023-04-24T12:00:16;11.97;63.82
71175;DHT22;58876;51.994;4.472;2023-04-24T12:02:42;11.91;65.57
71175;DHT22;58876;51.994;4.472;2023-04-24T12:05:08;12.17;64.77
71175;DHT22;58876;51.994;4.472;2023-04-24T12:07:41;12.08;65.34
71175;DHT22;58876;51.994;4.472;2023-04-24T12:10:10;11.97;64.32
71175;DHT22;58876;51.994;4.472;2023-04-24T12:12:35;11.38;67.37
71175;DHT22;58876;51.994;4.472;2023-04-24T12:15:07;10.85;73.00
71175;DHT22;58876;51.994;4.472;2023-04-24T12:17:34;10.30;75.59
71175;DHT22;58876;51.994;4.472;2023-04-24T12:20:02;10.01;75.25
71175;DHT22;58876;51.994;4.472;2023-04-24T12:22:50;9.85;75.41
71175;DHT22;58876;51.994;4.472;2023-04-24T12:25:27;9.67;77.38
71175;DHT22;58876;51.994;4.472;2023-04-24T12:28:13;9.91;78.91
71175;DHT22;58876;51.994;4.472;2023-04-24T12:30:46;10.20;78.33
71175;DHT22;58876;51.994;4.472;2023-04-24T12:33:18;10.46;79.04
71175;DHT22;58876;51.994;4.472;2023-04-24T12:35:45;10.90;79.33
71175;DHT22;58876;51.994;4.472;2023-04-24T12:38:12;11.25;77.45
71175;DHT22;58876;51.994;4.472;2023-04-24T12:40:39;11.16;75.42
71175;DHT22;58876;51.994;4.472;2023-04-24T12:43:19;11.19;73.41
71175;DHT22;58876;51.994;4.472;2023-04-24T12:45:45;11.39;71.69
71175;DHT22;58876;51.994;4.472;2023-04-24T12:48:11;11.44;72.77
71175;DHT22;58876;51.994;4.472;2023-04-24T12:50:39;11.11;73.22
71175;DHT22;58876;51.994;4.472;2023-04-24T12:53:06;10.90;71.08
71175;DHT22;58876;51.994;4.472;2023-04-24T12:55:32;10.80;66.93
71175;DHT22;58876;51.994;4.472;2023-04-24T12:57:58;10.64;70.12
71175;DHT22;58876;51.994;4.472;2023-04-24T13:00:23;10.68;69.95
71175;DHT22;58876;51.994;4.472;2023-04-24T13:02:49;10.77;69.52
71175;DHT22;58876;51.994;4.472;2023-04-24T13:05:14;10.75;66.55
71175;DHT22;58876;51.994;4.472;2023-04-24T13:07:40;10.68;68.48
71175;DHT22;58876;51.994;4.472;2023-04-24T13:10:07;10.71;69.66
71175;DHT22;58876;51.994;4.472;2023-04-24T13:12:32;10.92;69.32
71175;DHT22;58876;51.994;4.472;2023-04-24T13:14:58;10.87;69.35
71175;DHT22;58876;51.994;4.472;2023-04-24T13:17:24;10.75;70.30
71175;DHT22;58876;51.994;4.472;2023-04-24T13:19:51;11.18;71.55
71175;DHT22;58876;51.994;4.472;2023-04-24T13:22:17;10.78;68.80
71175;DHT22;58876;51.994;4.472;2023-04-24T13:24:46;10.78;69.18
71175;DHT22;58876;51.994;4.472;2023-04-24T13:27:14;11.02;69.54
71175;DHT22;58876;51.994;4.472;2023-04-24T13:29:40;11.47;68.63
71175;DHT22;58876;51.994;4.472;2023-04-24T13:32:06;12.01;68.67
71175;DHT22;58876;51.994;4.472;2023-04-24T13:34:31;12.04;66.53
71175;DHT22;58876;51.994;4.472;2023-04-24T13:36:58;12.10;64.91
71175;DHT22;58876;51.994;4.472;2023-04-24T13:39:24;11.86;63.27
71175;DHT22;58876;51.994;4.472;2023-04-24T13:41:51;11.62;64.04
71175;DHT22;58876;51.994;4.472;2023-04-24T13:44:18;11.87;63.66
71175;DHT22;58876;51.994;4.472;2023-04-24T13:46:46;12.29;64.62
71175;DHT22;58876;51.994;4.472;2023-04-24T13:49:15;12.11;63.31
71175;DHT22;58876;51.994;4.472;2023-04-24T13:51:41;11.97;62.09
71175;DHT22;58876;51.994;4.472;2023-04-24T13:54:08;12.27;62.14
71175;DHT22;58876;51.994;4.472;2023-04-24T13:56:34;11.98;62.03
71175;DHT22;58876;51.994;4.472;2023-04-24T13:58:59;11.79;62.03
71175;DHT22;58876;51.994;4.472;2023-04-24T14:01:26;11.69;62.39
71175;DHT22;58876;51.994;4.472;2023-04-24T14:03:55;11.53;63.63
71175;DHT22;58876;51.994;4.472;2023-04-24T14:06:21;11.25;64.49
71175;DHT22;58876;51.994;4.472;2023-04-24T14:08:47;11.23;64.89
71175;DHT22;58876;51.994;4.472;2023-04-24T14:11:13;11.16;67.66
71175;DHT22;58876;51.994;4.472;2023-04-24T14:13:41;11.02;67.24
71175;DHT22;58876;51.994;4.472;2023-04-24T14:16:07;10.67;67.60
71175;DHT22;58876;51.994;4.472;2023-04-24T14:18:32;10.49;68.84
71175;DHT22;58876;51.994;4.472;2023-04-24T14:20:58;10.37;70.10
71175;DHT22;58876;51.994;4.472;2023-04-24T14:23:24;10.54;68.65
71175;DHT22;58876;51.994;4.472;2023-04-24T14:25:49;10.87;67.38
71175;DHT22;58876;51.994;4.472;2023-04-24T14:28:20;10.97;67.09
71175;DHT22;58876;51.994;4.472;2023-04-24T14:30:47;11.16;65.28
71175;DHT22;58876;51.994;4.472;2023-04-24T14:33:13;11.46;67.02
71175;DHT22;58876;51.994;4.472;2023-04-24T14:35:40;11.32;64.99
71175;DHT22;58876;51.994;4.472;2023-04-24T14:38:07;11.58;66.52
71175;DHT22;58876;51.994;4.472;2023-04-24T14:40:33;11.62;66.30
71175;DHT22;58876;51.994;4.472;2023-04-24T14:42:58;11.56;66.27
71175;DHT22;58876;51.994;4.472;2023-04-24T14:45:25;11.70;64.58
71175;DHT22;58876;51.994;4.472;2023-04-24T14:47:50;11.86;65.39
71175;DHT22;58876;51.994;4.472;2023-04-24T14:50:16;11.79;65.93
71175;DHT22;58876;51.994;4.472;2023-04-24T14:52:42;12.01;65.48
71175;DHT22;58876;51.994;4.472;2023-04-24T14:55:08;11.94;64.77
71175;DHT22;58876;51.994;4.472;2023-04-24T14:57:34;11.39;65.66
71175;DHT22;58876;51.994;4.472;2023-04-24T15:00:01;11.44;64.98
71175;DHT22;58876;51.994;4.472;2023-04-24T15:02:27;11.14;64.10
71175;DHT22;58876;51.994;4.472;2023-04-24T15:04:52;11.15;64.18
71175;DHT22;58876;51.994;4.472;2023-04-24T15:07:17;10.82;63.79
71175;DHT22;58876;51.994;4.472;2023-04-24T15:09:43;10.85;63.49
71175;DHT22;58876;51.994;4.472;2023-04-24T15:12:09;11.36;64.57
71175;DHT22;58876;51.994;4.472;2023-04-24T15:14:35;11.32;64.39
71175;DHT22;58876;51.994;4.472;2023-04-24T15:17:00;11.25;65.82
71175;DHT22;58876;51.994;4.472;2023-04-24T15:19:26;11.18;65.79
71175;DHT22;58876;51.994;4.472;2023-04-24T15:21:51;11.12;66.77
71175;DHT22;58876;51.994;4.472;2023-04-24T15:24:17;10.80;67.34
71175;DHT22;58876;51.994;4.472;2023-04-24T15:26:42;10.68;67.15
71175;DHT22;58876;51.994;4.472;2023-04-24T15:29:08;10.50;67.83
71175;DHT22;58876;51.994;4.472;2023-04-24T15:31:33;10.87;67.40
71175;DHT22;58876;51.994;4.472;2023-04-24T15:33:59;11.15;66.34
71175;DHT22;58876;51.994;4.472;2023-04-24T15:36:24;11.11;63.98
71175;DHT22;58876;51.994;4.472;2023-04-24T15:38:50;11.31;64.10
71175;DHT22;58876;51.994;4.472;2023-04-24T15:41:15;11.55;63.30
71175;DHT22;58876;51.994;4.472;2023-04-24T15:43:41;11.80;63.93